sensor_id;sensor_type;location;lat;lon;timestamp;temperature;humidity
4584;DHT22;2304;47.606;12.186;2023-12-29T00:02:20;6.50;62.70
4584;DHT22;2304;47.606;12.186;2023-12-29T00:07:22;6.60;62.70
4584;DHT22;2304;47.606;12.186;2023-12-29T00:12:25;6.60;62.70
4584;DHT22;2304;47.606;12.186;2023-12-29T00:17:27;6.60;62.90
4584;DHT22;2304;47.606;12.186;2023-12-29T00:22:28;6.70;63.00
4584;DHT22;2304;47.606;12.186;2023-12-29T00:27:32;6.70;62.80
4584;DHT22;2304;47.606;12.186;2023-12-29T00:32:33;6.60;63.60
4584;DHT22;2304;47.606;12.186;2023-12-29T00:37:36;6.60;63.80
4584;DHT22;2304;47.606;12.186;2023-12-29T00:42:39;6.60;63.60
4584;DHT22;2304;47.606;12.186;2023-12-29T00:47:41;6.60;63.10
4584;DHT22;2304;47.606;12.186;2023-12-29T00:52:43;6.50;63.40
4584;DHT22;2304;47.606;12.186;2023-12-29T00:57:46;6.50;63.80
4584;DHT22;2304;47.606;12.186;2023-12-29T01:02:47;6.40;64.70
4584;DHT22;2304;47.606;12.186;2023-12-29T01:07:49;6.20;64.60
4584;DHT22;2304;47.606;12.186;2023-12-29T01:12:52;6.30;64.80
4584;DHT22;2304;47.606;12.186;2023-12-29T01:17:54;6.10;64.60
4584;DHT22;2304;47.606;12.186;2023-12-29T01:22:56;6.10;64.40
4584;DHT22;2304;47.606;12.186;2023-12-29T01:27:59;6.00;64.70
4584;DHT22;2304;47.606;12.186;2023-12-29T01:33:01;6.00;65.40
4584;DHT22;2304;47.606;12.186;2023-12-29T01:38:03;5.90;65.50
4584;DHT22;2304;47.606;12.186;2023-12-29T01:43:06;5.80;65.30
4584;DHT22;2304;47.606;12.186;2023-12-29T01:48:08;5.80;65.60
4584;DHT22;2304;47.606;12.186;2023-12-29T01:53:10;5.80;65.30
4584;DHT22;2304;47.606;12.186;2023-12-29T01:58:14;5.80;65.40
4584;DHT22;2304;47.606;12.186;2023-12-29T02:03:16;5.80;65.20
4584;DHT22;2304;47.606;12.186;2023-12-29T02:08:18;5.70;64.40
4584;DHT22;2304;47.606;12.186;2023-12-29T02:13:22;5.60;65.90
4584;DHT22;2304;47.606;12.186;2023-12-29T02:18:24;5.60;65.90
4584;DHT22;2304;47.606;12.186;2023-12-29T02:23:27;5.60;65.80
4584;DHT22;2304;47.606;12.186;2023-12-29T02:28:31;5.50;66.10
4584;DHT22;2304;47.606;12.186;2023-12-29T02:33:38;5.40;66.40
4584;DHT22;2304;47.606;12.186;2023-12-29T02:38:40;5.40;66.60
4584;DHT22;2304;47.606;12.186;2023-12-29T02:43:44;5.30;65.60
4584;DHT22;2304;47.606;12.186;2023-12-29T02:48:45;5.20;66.60
4584;DHT22;2304;47.606;12.186;2023-12-29T02:53:47;5.20;66.80
4584;DHT22;2304;47.606;12.186;2023-12-29T02:58:51;5.00;67.70
4584;DHT22;2304;47.606;12.186;2023-12-29T03:03:53;4.90;68.70
4584;DHT22;2304;47.606;12.186;2023-12-29T03:08:55;4.70;69.30
4584;DHT22;2304;47.606;12.186;2023-12-29T03:13:58;4.40;69.80
4584;DHT22;2304;47.606;12.186;2023-12-29T03:19:00;4.30;70.60
4584;DHT22;2304;47.606;12.186;2023-12-29T03:24:02;4.30;71.20
4584;DHT22;2304;47.606;12.186;2023-12-29T03:29:05;4.20;71.70
4584;DHT22;2304;47.606;12.186;2023-12-29T03:34:07;4.10;72.10
4584;DHT22;2304;47.606;12.186;2023-12-29T03:39:09;4.00;72.60
4584;DHT22;2304;47.606;12.186;2023-12-29T03:44:12;4.00;72.80
4584;DHT22;2304;47.606;12.186;2023-12-29T03:49:14;4.00;72.30
4584;DHT22;2304;47.606;12.186;2023-12-29T03:54:16;4.10;72.30
4584;DHT22;2304;47.606;12.186;2023-12-29T03:59:21;4.10;71.60
4584;DHT22;2304;47.606;12.186;2023-12-29T04:04:23;4.10;71.30
4584;DHT22;2304;47.606;12.186;2023-12-29T04:09:25;4.20;71.30
4584;DHT22;2304;47.606;12.186;2023-12-29T04:14:28;4.10;70.90
4584;DHT22;2304;47.606;12.186;2023-12-29T04:19:30;4.30;70.70
4584;DHT22;2304;47.606;12.186;2023-12-29T04:24:32;4.10;70.50
4584;DHT22;2304;47.606;12.186;2023-12-29T04:29:35;4.10;70.70
4584;DHT22;2304;47.606;12.186;2023-12-29T04:34:37;4.10;70.50
4584;DHT22;2304;47.606;12.186;2023-12-29T04:39:39;4.20;70.50
4584;DHT22;2304;47.606;12.186;2023-12-29T04:44:42;4.30;69.40
4584;DHT22;2304;47.606;12.186;2023-12-29T04:49:44;4.50;67.90
4584;DHT22;2304;47.606;12.186;2023-12-29T04:54:45;4.60;67.20
4584;DHT22;2304;47.606;12.186;2023-12-29T04:59:49;4.80;66.40
4584;DHT22;2304;47.606;12.186;2023-12-29T05:04:51;4.80;66.50
4584;DHT22;2304;47.606;12.186;2023-12-29T05:09:53;5.00;66.60
4584;DHT22;2304;47.606;12.186;2023-12-29T05:14:56;4.60;67.10
4584;DHT22;2304;47.606;12.186;2023-12-29T05:19:58;4.50;67.90
4584;DHT22;2304;47.606;12.186;2023-12-29T05:24:59;4.50;68.20
4584;DHT22;2304;47.606;12.186;2023-12-29T05:30:03;4.50;68.50
4584;DHT22;2304;47.606;12.186;2023-12-29T05:35:06;4.50;68.50
4584;DHT22;2304;47.606;12.186;2023-12-29T05:40:08;4.50;68.50
4584;DHT22;2304;47.606;12.186;2023-12-29T05:45:12;4.20;68.30
4584;DHT22;2304;47.606;12.186;2023-12-29T05:50:14;4.40;68.80
4584;DHT22;2304;47.606;12.186;2023-12-29T05:55:16;4.40;69.20
4584;DHT22;2304;47.606;12.186;2023-12-29T06:00:19;4.40;69.20
4584;DHT22;2304;47.606;12.186;2023-12-29T06:05:21;4.30;69.10
4584;DHT22;2304;47.606;12.186;2023-12-29T06:10:23;4.50;69.20
4584;DHT22;2304;47.606;12.186;2023-12-29T06:15:27;4.50;69.00
4584;DHT22;2304;47.606;12.186;2023-12-29T06:20:29;4.60;68.40
4584;DHT22;2304;47.606;12.186;2023-12-29T06:25:31;4.70;68.30
4584;DHT22;2304;47.606;12.186;2023-12-29T06:30:35;4.70;68.10
4584;DHT22;2304;47.606;12.186;2023-12-29T06:35:36;4.80;67.70
4584;DHT22;2304;47.606;12.186;2023-12-29T06:40:39;5.00;67.50
4584;DHT22;2304;47.606;12.186;2023-12-29T06:45:42;4.80;67.90
4584;DHT22;2304;47.606;12.186;2023-12-29T06:50:45;5.00;68.30
4584;DHT22;2304;47.606;12.186;2023-12-29T06:55:47;4.70;68.50
4584;DHT22;2304;47.606;12.186;2023-12-29T07:00:50;4.80;68.30
4584;DHT22;2304;47.606;12.186;2023-12-29T07:05:52;5.20;68.20
4584;DHT22;2304;47.606;12.186;2023-12-29T07:10:54;4.90;69.40
4584;DHT22;2304;47.606;12.186;2023-12-29T07:15:57;4.80;68.50
4584;DHT22;2304;47.606;12.186;2023-12-29T07:20:59;4.80;68.40
4584;DHT22;2304;47.606;12.186;2023-12-29T07:31:55;4.70;69.20
4584;DHT22;2304;47.606;12.186;2023-12-29T07:36:57;4.80;68.90
4584;DHT22;2304;47.606;12.186;2023-12-29T07:41:59;4.90;68.40
4584;DHT22;2304;47.606;12.186;2023-12-29T07:47:03;4.90;68.00
4584;DHT22;2304;47.606;12.186;2023-12-29T07:52:05;4.80;68.10
4584;DHT22;2304;47.606;12.186;2023-12-29T07:57:07;4.90;68.90
4584;DHT22;2304;47.606;12.186;2023-12-29T08:02:10;5.00;68.20
4584;DHT22;2304;47.606;12.186;2023-12-29T08:07:12;4.90;67.60
4584;DHT22;2304;47.606;12.186;2023-12-29T08:12:14;5.00;68.30
4584;DHT22;2304;47.606;12.186;2023-12-29T08:17:17;4.90;68.10
4584;DHT22;2304;47.606;12.186;2023-12-29T08:22:19;5.20;68.00
4584;DHT22;2304;47.606;12.186;2023-12-29T08:27:24;5.00;68.10
4584;DHT22;2304;47.606;12.186;2023-12-29T08:32:28;5.20;67.80
4584;DHT22;2304;47.606;12.186;2023-12-29T08:37:30;5.20;66.70
4584;DHT22;2304;47.606;12.186;2023-12-29T08:42:33;5.30;66.40
4584;DHT22;2304;47.606;12.186;2023-12-29T08:47:36;5.40;65.70
4584;DHT22;2304;47.606;12.186;2023-12-29T08:52:38;5.80;64.80
4584;DHT22;2304;47.606;12.186;2023-12-29T08:57:41;5.60;64.10
4584;DHT22;2304;47.606;12.186;2023-12-29T09:02:44;6.00;64.10
4584;DHT22;2304;47.606;12.186;2023-12-29T09:07:47;6.00;63.50
4584;DHT22;2304;47.606;12.186;2023-12-29T09:12:48;6.20;63.20
4584;DHT22;2304;47.606;12.186;2023-12-29T09:17:52;6.50;62.00
4584;DHT22;2304;47.606;12.186;2023-12-29T09:22:54;6.40;60.60
4584;DHT22;2304;47.606;12.186;2023-12-29T09:27:56;6.50;61.10
4584;DHT22;2304;47.606;12.186;2023-12-29T09:32:59;6.70;61.70
4584;DHT22;2304;47.606;12.186;2023-12-29T09:38:01;6.80;61.10
4584;DHT22;2304;47.606;12.186;2023-12-29T09:43:04;6.80;60.30
4584;DHT22;2304;47.606;12.186;2023-12-29T09:48:08;6.80;60.90
4584;DHT22;2304;47.606;12.186;2023-12-29T09:53:13;6.90;60.60
4584;DHT22;2304;47.606;12.186;2023-12-29T09:58:15;7.00;59.80
4584;DHT22;2304;47.606;12.186;2023-12-29T10:03:20;7.10;59.40
4584;DHT22;2304;47.606;12.186;2023-12-29T10:08:22;7.20;58.60
4584;DHT22;2304;47.606;12.186;2023-12-29T10:13:24;7.40;58.20
4584;DHT22;2304;47.606;12.186;2023-12-29T10:18:34;7.50;59.10
4584;DHT22;2304;47.606;12.186;2023-12-29T10:23:41;7.70;58.50
4584;DHT22;2304;47.606;12.186;2023-12-29T10:28:46;7.80;57.70
4584;DHT22;2304;47.606;12.186;2023-12-29T10:33:51;7.90;57.70
4584;DHT22;2304;47.606;12.186;2023-12-29T10:39:06;8.00;56.70
4584;DHT22;2304;47.606;12.186;2023-12-29T10:44:08;8.20;56.50
4584;DHT22;2304;47.606;12.186;2023-12-29T10:49:12;8.20;56.30
4584;DHT22;2304;47.606;12.186;2023-12-29T10:54:19;8.50;57.10
4584;DHT22;2304;47.606;12.186;2023-12-29T10:59:23;8.70;56.80
4584;DHT22;2304;47.606;12.186;2023-12-29T11:04:27;8.80;55.90
4584;DHT22;2304;47.606;12.186;2023-12-29T11:09:30;9.00;55.90
4584;DHT22;2304;47.606;12.186;2023-12-29T11:14:32;9.30;55.60
4584;DHT22;2304;47.606;12.186;2023-12-29T11:19:35;9.50;55.60
4584;DHT22;2304;47.606;12.186;2023-12-29T11:24:38;9.70;54.80
4584;DHT22;2304;47.606;12.186;2023-12-29T11:29:40;9.80;54.90
4584;DHT22;2304;47.606;12.186;2023-12-29T11:34:48;9.80;54.50
4584;DHT22;2304;47.606;12.186;2023-12-29T11:39:55;9.90;53.90
4584;DHT22;2304;47.606;12.186;2023-12-29T11:45:24;9.90;54.00
4584;DHT22;2304;47.606;12.186;2023-12-29T11:50:29;10.10;53.90
4584;DHT22;2304;47.606;12.186;2023-12-29T11:55:34;10.30;52.70
4584;DHT22;2304;47.606;12.186;2023-12-29T12:00:46;10.40;53.30
4584;DHT22;2304;47.606;12.186;2023-12-29T12:05:50;10.60;52.40
4584;DHT22;2304;47.606;12.186;2023-12-29T12:10:52;10.40;50.80
4584;DHT22;2304;47.606;12.186;2023-12-29T12:15:54;10.50;51.70
4584;DHT22;2304;47.606;12.186;2023-12-29T12:20:57;10.70;51.50
4584;DHT22;2304;47.606;12.186;2023-12-29T12:26:01;10.80;50.80
4584;DHT22;2304;47.606;12.186;2023-12-29T12:31:07;11.00;50.80
4584;DHT22;2304;47.606;12.186;2023-12-29T12:36:10;11.20;50.80
4584;DHT22;2304;47.606;12.186;2023-12-29T12:41:12;11.30;50.30
4584;DHT22;2304;47.606;12.186;2023-12-29T12:51:26;11.30;49.50
4584;DHT22;2304;47.606;12.186;2023-12-29T12:56:28;11.30;50.00
4584;DHT22;2304;47.606;12.186;2023-12-29T13:01:34;11.40;50.60
4584;DHT22;2304;47.606;12.186;2023-12-29T13:06:41;11.30;49.70
4584;DHT22;2304;47.606;12.186;2023-12-29T13:11:45;11.20;49.60
4584;DHT22;2304;47.606;12.186;2023-12-29T13:16:47;11.10;49.50
4584;DHT22;2304;47.606;12.186;2023-12-29T13:21:52;11.10;50.70
4584;DHT22;2304;47.606;12.186;2023-12-29T13:26:58;11.00;50.80
4584;DHT22;2304;47.606;12.186;2023-12-29T13:32:07;10.90;50.80
4584;DHT22;2304;47.606;12.186;2023-12-29T13:37:18;11.00;50.90
4584;DHT22;2304;47.606;12.186;2023-12-29T13:42:23;10.80;50.40
4584;DHT22;2304;47.606;12.186;2023-12-29T13:47:26;10.80;50.60
4584;DHT22;2304;47.606;12.186;2023-12-29T13:52:29;10.80;51.30
4584;DHT22;2304;47.606;12.186;2023-12-29T13:57:31;10.80;51.30
4584;DHT22;2304;47.606;12.186;2023-12-29T14:02:35;10.90;51.20
4584;DHT22;2304;47.606;12.186;2023-12-29T14:07:44;11.00;51.70
4584;DHT22;2304;47.606;12.186;2023-12-29T14:12:47;11.10;51.60
4584;DHT22;2304;47.606;12.186;2023-12-29T14:17:49;11.10;51.70
4584;DHT22;2304;47.606;12.186;2023-12-29T14:23:01;11.10;51.20
4584;DHT22;2304;47.606;12.186;2023-12-29T14:28:05;11.10;52.70
4584;DHT22;2304;47.606;12.186;2023-12-29T14:33:15;11.10;53.30
4584;DHT22;2304;47.606;12.186;2023-12-29T14:38:18;11.10;53.00
4584;DHT22;2304;47.606;12.186;2023-12-29T14:43:21;11.00;53.90
4584;DHT22;2304;47.606;12.186;2023-12-29T14:48:23;11.00;53.50
4584;DHT22;2304;47.606;12.186;2023-12-29T14:53:26;10.80;53.50
4584;DHT22;2304;47.606;12.186;2023-12-29T14:58:28;10.60;54.00
4584;DHT22;2304;47.606;12.186;2023-12-29T15:03:30;10.50;55.00
4584;DHT22;2304;47.606;12.186;2023-12-29T15:08:34;10.40;54.80
4584;DHT22;2304;47.606;12.186;2023-12-29T15:13:37;10.30;55.60
4584;DHT22;2304;47.606;12.186;2023-12-29T15:18:38;10.40;56.10
4584;DHT22;2304;47.606;12.186;2023-12-29T15:23:42;10.30;55.30
4584;DHT22;2304;47.606;12.186;2023-12-29T15:28:43;9.90;54.50
4584;DHT22;2304;47.606;12.186;2023-12-29T15:33:45;9.60;55.20
4584;DHT22;2304;47.606;12.186;2023-12-29T15:38:49;9.30;55.00
4584;DHT22;2304;47.606;12.186;2023-12-29T15:43:51;9.20;55.20
4584;DHT22;2304;47.606;12.186;2023-12-29T15:48:53;9.10;56.00
4584;DHT22;2304;47.606;12.186;2023-12-29T15:53:59;9.00;56.20
4584;DHT22;2304;47.606;12.186;2023-12-29T15:59:01;8.90;56.90
4584;DHT22;2304;47.606;12.186;2023-12-29T16:04:03;8.70;57.70
4584;DHT22;2304;47.606;12.186;2023-12-29T16:09:06;8.70;57.70
4584;DHT22;2304;47.606;12.186;2023-12-29T16:14:08;8.50;58.10
4584;DHT22;2304;47.606;12.186;2023-12-29T16:19:10;8.30;58.50
4584;DHT22;2304;47.606;12.186;2023-12-29T16:24:13;8.30;58.60
4584;DHT22;2304;47.606;12.186;2023-12-29T16:29:16;8.20;58.90
4584;DHT22;2304;47.606;12.186;2023-12-29T16:34:18;8.10;59.20
4584;DHT22;2304;47.606;12.186;2023-12-29T16:39:21;8.20;59.70
4584;DHT22;2304;47.606;12.186;2023-12-29T16:44:23;7.70;59.90
4584;DHT22;2304;47.606;12.186;2023-12-29T16:49:25;7.80;59.70
4584;DHT22;2304;47.606;12.186;2023-12-29T16:54:28;7.80;59.70
4584;DHT22;2304;47.606;12.186;2023-12-29T16:59:33;8.00;59.60
4584;DHT22;2304;47.606;12.186;2023-12-29T17:04:36;7.80;59.70
4584;DHT22;2304;47.606;12.186;2023-12-29T17:09:39;7.70;60.30
4584;DHT22;2304;47.606;12.186;2023-12-29T17:14:41;7.70;60.20
4584;DHT22;2304;47.606;12.186;2023-12-29T17:19:43;7.70;59.90
4584;DHT22;2304;47.606;12.186;2023-12-29T17:24:46;7.60;60.10
4584;DHT22;2304;47.606;12.186;2023-12-29T17:29:48;7.40;60.10
4584;DHT22;2304;47.606;12.186;2023-12-29T17:34:50;7.20;60.90
4584;DHT22;2304;47.606;12.186;2023-12-29T17:39:54;7.10;61.50
4584;DHT22;2304;47.606;12.186;2023-12-29T17:44:56;7.00;62.00
4584;DHT22;2304;47.606;12.186;2023-12-29T17:49:57;7.00;62.50
4584;DHT22;2304;47.606;12.186;2023-12-29T17:55:00;6.80;62.70
4584;DHT22;2304;47.606;12.186;2023-12-29T18:00:03;6.70;61.70
4584;DHT22;2304;47.606;12.186;2023-12-29T18:05:06;6.80;61.50
4584;DHT22;2304;47.606;12.186;2023-12-29T18:10:09;6.80;62.00
4584;DHT22;2304;47.606;12.186;2023-12-29T18:15:11;6.80;62.00
4584;DHT22;2304;47.606;12.186;2023-12-29T18:20:15;6.70;61.80
4584;DHT22;2304;47.606;12.186;2023-12-29T18:25:18;6.60;62.20
4584;DHT22;2304;47.606;12.186;2023-12-29T18:30:20;6.50;62.80
4584;DHT22;2304;47.606;12.186;2023-12-29T18:35:22;6.40;63.30
4584;DHT22;2304;47.606;12.186;2023-12-29T18:40:25;6.40;63.40
4584;DHT22;2304;47.606;12.186;2023-12-29T18:45:27;6.40;63.70
4584;DHT22;2304;47.606;12.186;2023-12-29T18:50:29;6.20;64.10
4584;DHT22;2304;47.606;12.186;2023-12-29T18:55:32;6.20;64.80
4584;DHT22;2304;47.606;12.186;2023-12-29T19:00:34;6.30;64.40
4584;DHT22;2304;47.606;12.186;2023-12-29T19:05:36;6.20;64.80
4584;DHT22;2304;47.606;12.186;2023-12-29T19:10:39;6.20;64.60
4584;DHT22;2304;47.606;12.186;2023-12-29T19:15:41;6.20;64.70
4584;DHT22;2304;47.606;12.186;2023-12-29T19:20:43;6.20;64.50
4584;DHT22;2304;47.606;12.186;2023-12-29T19:25:46;6.10;64.40
4584;DHT22;2304;47.606;12.186;2023-12-29T19:30:48;6.20;64.90
4584;DHT22;2304;47.606;12.186;2023-12-29T19:36:12;6.10;65.00
4584;DHT22;2304;47.606;12.186;2023-12-29T19:41:18;6.00;64.90
4584;DHT22;2304;47.606;12.186;2023-12-29T19:46:21;6.00;65.00
4584;DHT22;2304;47.606;12.186;2023-12-29T19:51:23;5.90;65.20
4584;DHT22;2304;47.606;12.186;2023-12-29T19:56:28;5.90;65.40
4584;DHT22;2304;47.606;12.186;2023-12-29T20:01:30;5.90;65.30
4584;DHT22;2304;47.606;12.186;2023-12-29T20:06:34;5.90;65.20
4584;DHT22;2304;47.606;12.186;2023-12-29T20:11:42;5.90;65.00
4584;DHT22;2304;47.606;12.186;2023-12-29T20:16:43;6.00;65.00
4584;DHT22;2304;47.606;12.186;2023-12-29T20:21:45;6.00;64.70
4584;DHT22;2304;47.606;12.186;2023-12-29T20:26:48;6.10;65.50
4584;DHT22;2304;47.606;12.186;2023-12-29T20:31:50;6.10;65.00
4584;DHT22;2304;47.606;12.186;2023-12-29T20:36:54;6.10;64.80
4584;DHT22;2304;47.606;12.186;2023-12-29T20:41:58;6.10;64.70
4584;DHT22;2304;47.606;12.186;2023-12-29T20:46:59;6.20;66.70
4584;DHT22;2304;47.606;12.186;2023-12-29T20:52:01;6.10;64.50
4584;DHT22;2304;47.606;12.186;2023-12-29T20:57:05;6.10;64.30
4584;DHT22;2304;47.606;12.186;2023-12-29T21:02:07;6.00;65.50
4584;DHT22;2304;47.606;12.186;2023-12-29T21:07:11;5.90;66.00
4584;DHT22;2304;47.606;12.186;2023-12-29T21:12:14;5.80;65.80
4584;DHT22;2304;47.606;12.186;2023-12-29T21:17:16;5.80;65.50
4584;DHT22;2304;47.606;12.186;2023-12-29T21:22:17;5.70;66.30
4584;DHT22;2304;47.606;12.186;2023-12-29T21:27:21;5.70;66.10
4584;DHT22;2304;47.606;12.186;2023-12-29T21:32:23;5.60;65.60
4584;DHT22;2304;47.606;12.186;2023-12-29T21:37:29;5.70;65.90
4584;DHT22;2304;47.606;12.186;2023-12-29T21:42:33;5.50;65.70
4584;DHT22;2304;47.606;12.186;2023-12-29T21:47:37;5.50;66.00
4584;DHT22;2304;47.606;12.186;2023-12-29T21:52:41;5.40;66.10
4584;DHT22;2304;47.606;12.186;2023-12-29T21:57:45;5.50;66.50
4584;DHT22;2304;47.606;12.186;2023-12-29T22:02:47;5.40;66.40
4584;DHT22;2304;47.606;12.186;2023-12-29T22:07:49;5.50;66.20
4584;DHT22;2304;47.606;12.186;2023-12-29T22:12:53;5.50;66.10
4584;DHT22;2304;47.606;12.186;2023-12-29T22:17:54;5.50;66.20
4584;DHT22;2304;47.606;12.186;2023-12-29T22:22:56;5.40;66.10
4584;DHT22;2304;47.606;12.186;2023-12-29T22:27:59;5.50;66.20
4584;DHT22;2304;47.606;12.186;2023-12-29T22:33:01;5.50;66.60
4584;DHT22;2304;47.606;12.186;2023-12-29T22:38:03;5.50;67.10
4584;DHT22;2304;47.606;12.186;2023-12-29T22:43:06;5.50;66.70
4584;DHT22;2304;47.606;12.186;2023-12-29T22:48:08;5.40;66.30
4584;DHT22;2304;47.606;12.186;2023-12-29T22:53:10;5.40;66.40
4584;DHT22;2304;47.606;12.186;2023-12-29T22:58:16;5.40;66.60
4584;DHT22;2304;47.606;12.186;2023-12-29T23:03:18;5.30;66.90
4584;DHT22;2304;47.606;12.186;2023-12-29T23:08:20;5.20;67.00
4584;DHT22;2304;47.606;12.186;2023-12-29T23:13:23;5.10;67.00
4584;DHT22;2304;47.606;12.186;2023-12-29T23:18:28;5.00;67.40
4584;DHT22;2304;47.606;12.186;2023-12-29T23:23:30;5.00;67.70
4584;DHT22;2304;47.606;12.186;2023-12-29T23:28:33;4.90;68.30
4584;DHT22;2304;47.606;12.186;2023-12-29T23:33:35;4.90;67.70
4584;DHT22;2304;47.606;12.186;2023-12-29T23:38:37;4.80;68.20
4584;DHT22;2304;47.606;12.186;2023-12-29T23:43:40;4.80;68.70
4584;DHT22;2304;47.606;12.186;2023-12-29T23:48:49;4.80;68.90
4584;DHT22;2304;47.606;12.186;2023-12-29T23:53:50;4.80;69.00
4584;DHT22;2304;47.606;12.186;2023-12-29T23:58:54;5.10;68.60
